Time;durP1;ratioP1;P1;durP2;ratioP2;P2;SDS_P1;SDS_P2;PMS_P1;PMS_P2;Temp;Humidity;BMP_temperature;BMP_pressure;BME280_temperature;BME280_humidity;BME280_pressure;Samples;Min_cycle;Max_cycle;Signal;HPM_P1;HPM_P2
2022/09/21 00:01:30;;;;;;;1.73;0.35;;;;;;;20.56;43.28;102542.66;16134874;19;131193;-53
2022/09/21 00:06:52;;;;;;;0.38;0.35;;;;;;;20.56;43.40;102547.38;16133470;19;130512;-50
2022/09/21 00:12:15;;;;;;;0.22;0.20;;;;;;;20.52;43.61;102544.19;16132162;19;134973;-53
2022/09/21 00:17:38;;;;;;;0.52;0.30;;;;;;;20.50;43.19;102543.56;16134062;19;129926;-56
2022/09/21 00:22:59;;;;;;;1.27;0.32;;;;;;;20.49;43.40;102539.06;16136643;19;129608;-54
2022/09/21 00:28:21;;;;;;;0.90;0.30;;;;;;;20.47;43.65;102544.00;16133858;19;129713;-54
2022/09/21 00:33:43;;;;;;;0.47;0.35;;;;;;;20.45;43.59;102541.44;16133946;19;129761;-54
2022/09/21 00:39:05;;;;;;;0.82;0.43;;;;;;;20.45;43.35;102552.56;16132930;19;129619;-51
2022/09/21 00:44:31;;;;;;;0.85;0.50;;;;;;;20.44;43.41;102555.53;16133060;19;130489;-49
2022/09/21 00:49:55;;;;;;;1.00;0.45;;;;;;;20.43;43.24;102548.31;16132471;19;129904;-53
2022/09/21 00:55:36;;;;;;;0.80;0.30;;;;;;;20.42;43.41;102557.72;16130292;19;129488;-56
2022/09/21 01:00:59;;;;;;;0.65;0.30;;;;;;;20.40;43.39;102557.06;16131083;19;129719;-54
2022/09/21 01:06:23;;;;;;;0.95;0.22;;;;;;;20.38;43.44;102562.00;16127469;19;129764;-48
2022/09/21 01:11:50;;;;;;;1.63;0.47;;;;;;;20.37;43.62;102554.72;16129286;19;129505;-56
2022/09/21 01:17:33;;;;;;;0.50;0.30;;;;;;;20.36;43.30;102558.56;16129312;19;129928;-53
2022/09/21 01:23:04;;;;;;;0.25;0.25;;;;;;;20.35;43.25;102556.84;16128108;19;129748;-55
2022/09/21 01:29:20;;;;;;;0.77;0.32;;;;;;;20.35;43.65;102556.84;16131156;19;129658;-51
2022/09/21 01:34:50;;;;;;;0.55;0.30;;;;;;;20.32;43.40;102554.50;16121855;19;129926;-53
2022/09/21 01:40:21;;;;;;;1.90;0.50;;;;;;;20.31;43.45;102556.44;16117775;19;129756;-56
2022/09/21 01:45:50;;;;;;;0.43;0.30;;;;;;;20.30;43.45;102543.63;16120693;19;131303;-56
2022/09/21 01:51:15;;;;;;;0.40;0.30;;;;;;;20.26;43.46;102548.78;16119467;19;130001;-55
2022/09/21 01:56:50;;;;;;;0.70;0.30;;;;;;;20.27;43.26;102547.69;16117607;19;129995;-52
2022/09/21 02:02:17;;;;;;;0.43;0.40;;;;;;;20.25;43.38;102547.06;16117282;19;129773;-56
2022/09/21 02:07:39;;;;;;;0.90;0.35;;;;;;;20.23;43.24;102542.81;16124606;19;130490;-54
2022/09/21 02:13:04;;;;;;;0.50;0.20;;;;;;;20.22;43.20;102544.72;16125681;19;130137;-56
2022/09/21 02:18:41;;;;;;;0.65;0.40;;;;;;;20.21;43.26;102540.22;16126481;19;128933;-56
2022/09/21 02:24:21;;;;;;;0.63;0.32;;;;;;;20.21;43.17;102539.38;16126570;19;130207;-53
2022/09/21 02:30:23;;;;;;;0.20;0.15;;;;;;;20.19;43.60;102541.53;16127021;19;130860;-55
2022/09/21 02:36:00;;;;;;;2.63;0.40;;;;;;;20.18;43.20;102553.69;16124134;19;129903;-48
2022/09/21 02:41:27;;;;;;;0.77;0.35;;;;;;;20.15;43.41;102552.22;16122895;19;129608;-45
2022/09/21 02:46:54;;;;;;;0.30;0.20;;;;;;;20.13;43.42;102544.09;16126154;19;129494;-46
2022/09/21 02:52:17;;;;;;;0.38;0.25;;;;;;;20.13;43.20;102540.47;16123463;19;129415;-46
2022/09/21 02:57:39;;;;;;;1.13;0.35;;;;;;;20.12;43.41;102538.75;16125267;19;129407;-45
2022/09/21 03:03:18;;;;;;;2.42;0.47;;;;;;;20.13;43.35;102537.69;16122618;19;129629;-46
2022/09/21 03:08:40;;;;;;;0.50;0.30;;;;;;;20.10;43.58;102538.97;16120108;19;129552;-45
2022/09/21 03:14:07;;;;;;;0.50;0.30;;;;;;;20.09;43.35;102545.63;16122464;19;129321;-48
2022/09/21 03:19:29;;;;;;;0.75;0.38;;;;;;;20.08;43.32;102541.13;16124443;19;130361;-47
2022/09/21 03:24:50;;;;;;;0.30;0.30;;;;;;;20.07;43.55;102544.09;16124625;19;128982;-46
2022/09/21 03:30:13;;;;;;;0.20;0.20;;;;;;;20.07;43.52;102544.09;16120238;19;129566;-53
2022/09/21 03:35:34;;;;;;;1.77;0.30;;;;;;;20.06;43.13;102539.66;16124105;19;135298;-47
2022/09/21 03:40:57;;;;;;;1.85;0.30;;;;;;;20.04;43.60;102545.41;16124997;19;130587;-48
2022/09/21 03:46:18;;;;;;;0.50;0.40;;;;;;;20.05;43.49;102547.09;16135677;19;129983;-47
2022/09/21 03:51:44;;;;;;;0.30;0.30;;;;;;;20.04;43.04;102547.34;16135682;19;129468;-46
2022/09/21 03:57:05;;;;;;;0.60;0.30;;;;;;;20.02;43.30;102543.91;16134766;19;129185;-46
2022/09/21 04:02:27;;;;;;;0.57;0.30;;;;;;;20.02;43.49;102546.69;16134737;19;129797;-47
2022/09/21 04:07:49;;;;;;;1.15;0.38;;;;;;;20.01;43.30;102545.81;16132611;19;130597;-56
2022/09/21 04:13:15;;;;;;;0.55;0.30;;;;;;;20.01;43.44;102543.03;16132281;19;130544;-52
2022/09/21 04:18:37;;;;;;;0.60;0.30;;;;;;;19.98;43.29;102544.31;16133974;19;129616;-54
2022/09/21 04:24:00;;;;;;;0.35;0.30;;;;;;;19.95;43.09;102536.41;16133631;19;129359;-55
2022/09/21 04:29:22;;;;;;;0.35;0.25;;;;;;;19.95;43.65;102541.94;16132640;19;129697;-47
2022/09/21 04:34:44;;;;;;;1.58;0.45;;;;;;;19.94;43.19;102548.56;16131217;19;129315;-52
2022/09/21 04:40:06;;;;;;;0.50;0.40;;;;;;;19.94;43.48;102556.06;16132022;19;129963;-45
2022/09/21 04:45:28;;;;;;;1.08;0.40;;;;;;;19.92;43.38;102567.41;16133743;19;130665;-46
2022/09/21 04:50:50;;;;;;;0.95;0.30;;;;;;;19.90;42.97;102566.75;16131757;19;129678;-47
2022/09/21 04:56:14;;;;;;;0.50;0.30;;;;;;;19.89;43.29;102561.41;16128541;19;130116;-46
2022/09/21 05:01:36;;;;;;;0.50;0.32;;;;;;;19.89;42.92;102565.06;16132448;19;129398;-48
2022/09/21 05:06:58;;;;;;;0.60;0.30;;;;;;;19.89;43.52;102556.72;16131698;19;129528;-46
2022/09/21 05:12:19;;;;;;;1.58;0.68;;;;;;;20.07;43.03;102566.31;16129854;19;130330;-48
2022/09/21 05:17:41;;;;;;;15.50;1.67;;;;;;;20.25;42.08;102563.75;16127196;19;129265;-46
2022/09/21 05:23:03;;;;;;;15.60;1.48;;;;;;;20.43;41.43;102570.53;16128944;19;129362;-45
2022/09/21 05:28:26;;;;;;;24.95;1.75;;;;;;;20.56;41.34;102564.91;16130755;19;130519;-47
2022/09/21 05:33:53;;;;;;;24.90;1.75;;;;;;;20.69;41.17;102563.16;16127510;19;129707;-46
2022/09/21 05:39:15;;;;;;;9.93;1.90;;;;;;;20.73;40.62;102570.84;16124379;19;130524;-47
2022/09/21 05:44:37;;;;;;;19.55;2.33;;;;;;;20.81;40.00;102572.53;16126799;19;129468;-47
2022/09/21 05:50:18;;;;;;;19.02;2.22;;;;;;;20.86;39.94;102581.09;16127193;19;129432;-44
2022/09/21 05:56:03;;;;;;;8.00;2.08;;;;;;;20.88;39.63;102590.06;16122907;19;129303;-47
2022/09/21 06:02:03;;;;;;;35.30;2.47;;;;;;;20.90;40.04;102595.41;16123436;19;129882;-45
2022/09/21 06:07:25;;;;;;;15.90;1.98;;;;;;;20.88;39.79;102598.41;16123883;19;129218;-47
2022/09/21 06:12:46;;;;;;;14.82;1.95;;;;;;;20.90;39.99;102598.19;16121960;19;130020;-46
2022/09/21 06:18:09;;;;;;;12.55;2.20;;;;;;;20.92;39.30;102607.16;16121163;19;129055;-49
2022/09/21 06:23:38;;;;;;;12.35;1.60;;;;;;;20.95;39.54;102611.41;16124513;19;130345;-45
2022/09/21 06:28:59;;;;;;;11.00;2.10;;;;;;;20.98;39.20;102611.84;16122237;19;129662;-47
2022/09/21 06:34:21;;;;;;;14.02;1.92;;;;;;;20.97;39.43;102604.59;16122105;19;130191;-43
2022/09/21 06:39:43;;;;;;;12.25;1.83;;;;;;;21.01;39.21;102605.81;16121694;19;129389;-44
2022/09/21 06:45:05;;;;;;;11.80;2.08;;;;;;;21.06;39.52;102607.94;16122542;19;129603;-46
2022/09/21 06:50:27;;;;;;;15.50;1.80;;;;;;;21.08;39.33;102608.56;16121670;19;129999;-47
2022/09/21 06:55:48;;;;;;;7.68;1.63;;;;;;;21.10;39.36;102605.59;16123353;19;129363;-49
2022/09/21 07:01:12;;;;;;;8.63;1.33;;;;;;;21.12;39.17;102607.06;16122318;19;130159;-47
2022/09/21 07:06:34;;;;;;;5.47;1.77;;;;;;;21.14;39.20;102610.50;16118226;19;129190;-46
2022/09/21 07:11:57;;;;;;;5.80;1.50;;;;;;;21.14;39.74;102606.84;16119600;19;129577;-46
2022/09/21 07:17:18;;;;;;;14.25;1.83;;;;;;;21.15;39.35;102614.97;16126615;19;129488;-47
2022/09/21 07:22:40;;;;;;;11.75;1.80;;;;;;;21.15;39.60;102606.63;16137333;19;129371;-48
2022/09/21 07:28:02;;;;;;;17.17;2.15;;;;;;;21.18;39.72;102620.06;16137277;19;129438;-52
2022/09/21 07:33:25;;;;;;;15.38;2.55;;;;;;;21.19;39.12;102619.00;16133854;19;129802;-49
2022/09/21 07:38:46;;;;;;;10.38;2.30;;;;;;;21.20;39.11;102615.16;16135409;19;130161;-46
2022/09/21 07:44:08;;;;;;;14.70;1.80;;;;;;;21.19;39.46;102613.44;16135469;19;129256;-46
2022/09/21 07:49:30;;;;;;;12.75;1.80;;;;;;;21.26;39.43;102618.13;16137405;19;129488;-47
2022/09/21 07:54:51;;;;;;;6.45;1.67;;;;;;;21.34;39.29;102621.50;16133748;19;129658;-43
2022/09/21 08:00:14;;;;;;;13.50;1.55;;;;;;;21.50;39.67;102608.13;16134720;19;129750;-45
2022/09/21 08:05:35;;;;;;;5.70;1.40;;;;;;;21.78;39.59;102606.84;16131194;19;130477;-47
2022/09/21 08:11:04;;;;;;;9.93;1.40;;;;;;;22.09;38.88;102600.34;16130305;19;129889;-45
2022/09/21 08:16:27;;;;;;;11.10;1.55;;;;;;;22.34;38.79;102609.81;16132902;19;130625;-41
2022/09/21 08:21:50;;;;;;;22.75;1.80;;;;;;;22.52;38.46;102603.38;16134958;19;135968;-44
2022/09/21 08:27:19;;;;;;;9.80;1.70;;;;;;;22.59;38.40;102618.09;16129992;19;130497;-43
2022/09/21 08:32:40;;;;;;;7.00;1.25;;;;;;;22.57;38.62;102617.47;16129087;19;129544;-46
2022/09/21 08:38:12;;;;;;;10.05;1.40;;;;;;;22.55;38.71;102622.44;16129174;19;129569;-44
2022/09/21 08:43:42;;;;;;;7.38;1.30;;;;;;;22.51;38.78;102621.19;16129939;19;129282;-46
2022/09/21 08:49:28;;;;;;;11.90;1.83;;;;;;;22.43;39.02;102611.19;16130843;19;129992;-46
2022/09/21 08:54:50;;;;;;;5.78;1.08;;;;;;;22.34;39.33;102616.22;16129090;19;129446;-47
2022/09/21 09:00:17;;;;;;;16.67;1.60;;;;;;;22.24;39.46;102616.75;16129155;19;130882;-48
2022/09/21 09:06:07;;;;;;;5.10;0.90;;;;;;;22.15;39.93;102614.47;16129161;19;129566;-48
2022/09/21 09:11:43;;;;;;;7.32;1.10;;;;;;;22.08;40.02;102612.59;16127657;19;134503;-44
2022/09/21 09:17:32;;;;;;;5.22;1.08;;;;;;;21.98;40.36;102620.63;16127069;19;130684;-46
2022/09/21 09:23:06;;;;;;;7.15;0.90;;;;;;;21.90;40.50;102621.75;16128800;19;129565;-44
2022/09/21 09:28:37;;;;;;;4.25;0.90;;;;;;;21.86;40.43;102631.63;16129814;19;130478;-49
2022/09/21 09:34:10;;;;;;;4.60;0.95;;;;;;;21.80;40.59;102625.03;16129360;19;130113;-47
2022/09/21 09:39:32;;;;;;;8.93;1.35;;;;;;;21.74;40.47;102617.59;16126740;19;129941;-46
2022/09/21 09:44:59;;;;;;;4.32;0.60;;;;;;;21.72;41.12;102622.53;16127282;19;129064;-48
2022/09/21 09:50:24;;;;;;;6.30;0.65;;;;;;;21.67;41.23;102619.56;16125270;19;130245;-45
2022/09/21 09:55:48;;;;;;;7.78;1.00;;;;;;;21.62;41.31;102616.63;16128377;19;131246;-46
2022/09/21 10:01:41;;;;;;;6.30;1.00;;;;;;;21.59;40.85;102617.06;16125470;19;129278;-46
2022/09/21 10:07:03;;;;;;;8.55;1.20;;;;;;;21.52;41.16;102609.63;16125243;19;129526;-44
2022/09/21 10:12:26;;;;;;;5.35;0.90;;;;;;;21.49;41.23;102610.09;16127221;19;129534;-44
2022/09/21 10:18:15;;;;;;;12.43;1.33;;;;;;;21.44;40.97;102609.84;16123917;19;129554;-47
2022/09/21 10:23:37;;;;;;;6.68;1.00;;;;;;;21.40;41.27;102616.97;16122751;19;129681;-50
2022/09/21 10:29:01;;;;;;;5.30;0.90;;;;;;;21.34;41.34;102609.50;16126157;19;129746;-50
2022/09/21 10:34:26;;;;;;;5.45;0.98;;;;;;;21.29;41.22;102609.34;16122698;19;130041;-45
2022/09/21 10:39:48;;;;;;;3.42;0.57;;;;;;;21.25;41.10;102610.84;16123931;19;129608;-46
2022/09/21 10:45:46;;;;;;;6.50;0.75;;;;;;;21.21;41.38;102599.31;16121264;19;129734;-49
2022/09/21 10:51:26;;;;;;;3.35;0.88;;;;;;;21.17;41.56;102603.59;16125339;19;129399;-44
2022/09/21 10:57:05;;;;;;;4.90;0.90;;;;;;;21.14;41.50;102598.47;16135664;19;129476;-45
2022/09/21 11:02:33;;;;;;;2.53;0.52;;;;;;;21.10;41.37;102595.31;16140709;19;129225;-45
2022/09/21 11:08:17;;;;;;;5.15;0.60;;;;;;;21.08;41.41;102593.81;16138850;19;129692;-43
2022/09/21 11:13:48;;;;;;;6.70;0.63;;;;;;;21.04;41.47;102594.25;16138169;19;129850;-46
2022/09/21 11:19:29;;;;;;;8.93;0.60;;;;;;;21.13;41.54;102594.00;16136591;19;130003;-46
2022/09/21 11:25:06;;;;;;;2.20;0.50;;;;;;;21.27;41.94;102569.72;16136480;19;130214;-44
2022/09/21 11:30:41;;;;;;;3.67;0.63;;;;;;;21.40;41.86;102564.06;16134726;19;129979;-46
2022/09/21 11:36:18;;;;;;;;;;;;;;;21.45;41.62;102572.59;16136310;19;129978;-47
2022/09/21 11:41:48;;;;;;;1.88;0.30;;;;;;;21.52;41.01;102567.88;16135607;19;130128;-45
2022/09/21 11:47:19;;;;;;;4.03;0.50;;;;;;;21.54;40.97;102559.28;16136070;19;130250;-47
2022/09/21 11:53:06;;;;;;;7.53;0.63;;;;;;;21.55;40.58;102569.34;16132498;19;130107;-47
2022/09/21 11:58:56;;;;;;;3.83;0.85;;;;;;;21.49;40.25;102559.09;16123090;19;129485;-46
2022/09/21 12:04:40;;;;;;;2.67;0.90;;;;;;;21.41;39.69;102549.06;16121742;19;129786;-46
2022/09/21 12:10:25;;;;;;;6.82;0.60;;;;;;;21.35;39.04;102550.81;16126517;19;129479;-48
2022/09/21 12:16:01;;;;;;;5.75;0.60;;;;;;;21.28;38.81;102551.94;16132600;19;129986;-43
2022/09/21 12:21:28;;;;;;;;;;;;;;;21.21;38.53;102544.50;16131545;19;129470;-45
2022/09/21 12:26:52;;;;;;;;;;;;;;;21.19;38.82;102537.44;16134741;19;131212;-44
2022/09/21 12:32:46;;;;;;;24.52;1.80;;;;;;;21.19;38.20;102532.72;16127399;19;130135;-43
2022/09/21 12:38:28;;;;;;;22.00;1.70;;;;;;;21.17;38.06;102534.88;16127200;19;130021;-45
2022/09/21 12:44:02;;;;;;;7.25;0.90;;;;;;;21.18;38.40;102538.53;16132136;19;133858;-43
2022/09/21 12:49:30;;;;;;;23.70;1.83;;;;;;;21.18;37.96;102528.22;16131258;19;130869;-48
2022/09/21 12:54:52;;;;;;;8.80;1.50;;;;;;;21.21;38.26;102527.78;16132022;19;129567;-44
2022/09/21 13:00:21;;;;;;;8.32;1.00;;;;;;;21.21;38.09;102527.78;16130223;19;129325;-45
2022/09/21 13:05:45;;;;;;;9.15;0.80;;;;;;;21.27;37.57;102516.84;16128627;19;129418;-43
2022/09/21 13:11:08;;;;;;;8.93;0.90;;;;;;;21.36;37.92;102512.69;16127482;19;129829;-43
2022/09/21 13:16:38;;;;;;;5.38;0.95;;;;;;;21.44;38.01;102509.63;16126938;19;130971;-44
2022/09/21 13:22:13;;;;;;;3.35;0.80;;;;;;;21.50;37.86;102503.19;16130068;19;129916;-44
2022/09/21 13:28:12;;;;;;;9.07;0.80;;;;;;;21.56;37.54;102494.97;16128401;19;129959;-45
2022/09/21 13:33:38;;;;;;;4.13;0.73;;;;;;;21.62;37.56;102496.88;16128816;19;129529;-46
2022/09/21 13:39:13;;;;;;;4.28;0.80;;;;;;;21.65;37.89;102493.63;16127003;19;128879;-43
2022/09/21 13:44:42;;;;;;;9.80;0.60;;;;;;;21.68;37.98;102487.59;16128749;19;129545;-43
2022/09/21 13:50:44;;;;;;;8.25;1.02;;;;;;;21.71;38.00;102477.94;16127261;19;130284;-45
2022/09/21 13:56:19;;;;;;;2.58;0.60;;;;;;;21.74;37.72;102475.53;16122845;19;129504;-45
2022/09/21 14:01:40;;;;;;;4.03;0.70;;;;;;;21.74;38.08;102474.66;16125459;19;129189;-46
2022/09/21 14:07:08;;;;;;;3.88;0.70;;;;;;;21.74;38.19;102463.53;16123529;19;129650;-44
2022/09/21 14:12:40;;;;;;;3.60;0.43;;;;;;;21.75;37.85;102463.31;16126370;19;129582;-47
2022/09/21 14:18:15;;;;;;;5.88;1.00;;;;;;;21.77;38.11;102463.06;16124873;19;129379;-46
2022/09/21 14:23:38;;;;;;;7.10;0.73;;;;;;;21.76;38.40;102467.81;16124601;19;129321;-46
2022/09/21 14:29:25;;;;;;;7.28;0.93;;;;;;;21.77;38.07;102458.38;16123134;19;129717;-45
2022/09/21 14:34:49;;;;;;;3.90;0.60;;;;;;;21.80;38.14;102451.47;16121935;19;129371;-44
2022/09/21 14:40:27;;;;;;;4.90;0.57;;;;;;;21.86;38.45;102449.69;16122019;19;130097;-48
2022/09/21 14:45:55;;;;;;;6.80;0.70;;;;;;;21.88;38.34;102447.53;16123729;19;134024;-45
2022/09/21 14:52:07;;;;;;;3.17;0.43;;;;;;;21.91;38.33;102447.09;16120300;19;130073;-47
2022/09/21 14:58:07;;;;;;;2.47;0.60;;;;;;;21.96;38.56;102431.38;16111332;19;129796;-46
2022/09/21 15:03:37;;;;;;;2.55;0.70;;;;;;;21.93;39.17;102425.38;16111150;19;131285;-46
2022/09/21 15:15:25;;;;;;;6.28;0.63;;;;;;;21.93;39.16;102419.81;16110441;19;129310;-46
2022/09/21 15:21:00;;;;;;;3.83;0.52;;;;;;;21.93;38.86;102409.53;16109997;19;129639;-46
2022/09/21 15:26:27;;;;;;;4.53;0.85;;;;;;;21.95;39.21;102410.16;16113521;19;129321;-46
2022/09/21 15:31:49;;;;;;;3.83;0.50;;;;;;;21.97;39.24;102415.50;16118452;19;133825;-47
2022/09/21 15:37:18;;;;;;;2.17;0.60;;;;;;;21.99;38.84;102416.13;16124847;19;129764;-45
2022/09/21 15:43:08;;;;;;;3.20;0.55;;;;;;;22.03;39.14;102406.19;16134195;19;129225;-47
2022/09/21 15:48:33;;;;;;;3.78;0.50;;;;;;;22.08;39.14;102406.34;16135910;19;129680;-45
2022/09/21 15:54:00;;;;;;;1.08;0.45;;;;;;;22.08;39.19;102400.78;16134659;19;130827;-47
2022/09/21 15:59:22;;;;;;;3.97;0.47;;;;;;;22.07;38.95;102404.63;16131078;19;129504;-45
2022/09/21 16:04:49;;;;;;;7.88;0.60;;;;;;;22.06;39.29;102391.78;16131761;19;129617;-46
2022/09/21 16:10:29;;;;;;;3.55;0.50;;;;;;;22.07;39.31;102393.50;16131171;19;129502;-47
2022/09/21 16:16:11;;;;;;;4.47;0.68;;;;;;;22.06;39.61;102394.56;16132811;19;129402;-44
2022/09/21 16:21:36;;;;;;;2.63;0.40;;;;;;;22.08;39.68;102389.63;16130614;19;129443;-45
2022/09/21 16:27:02;;;;;;;12.43;0.90;;;;;;;22.10;39.60;102393.03;16132647;19;130414;-44
2022/09/21 16:32:31;;;;;;;3.67;0.30;;;;;;;22.13;39.33;102395.34;16131539;19;129468;-45
2022/09/21 16:37:57;;;;;;;3.72;0.38;;;;;;;22.13;39.53;102389.78;16132162;19;130263;-45
2022/09/21 16:43:22;;;;;;;0.82;0.30;;;;;;;22.16;39.92;102401.53;16133725;19;130199;-46
2022/09/21 16:48:44;;;;;;;3.42;0.40;;;;;;;22.18;39.57;102399.34;16132642;19;129782;-44
2022/09/21 16:54:07;;;;;;;11.32;1.38;;;;;;;22.19;39.90;102404.72;16132516;19;129305;-44
2022/09/21 16:59:29;;;;;;;23.00;0.80;;;;;;;22.21;39.95;102402.59;16132104;19;130103;-45
2022/09/21 17:04:51;;;;;;;8.30;0.57;;;;;;;22.25;40.12;102400.16;16132613;19;129950;-44
2022/09/21 17:10:15;;;;;;;9.32;0.65;;;;;;;22.29;40.33;102404.16;16127009;19;129621;-43
2022/09/21 17:15:42;;;;;;;14.40;0.60;;;;;;;22.32;40.53;102398.13;16128043;19;129849;-45
2022/09/21 17:21:04;;;;;;;6.03;0.55;;;;;;;22.36;40.37;102404.94;16124040;19;129702;-45
2022/09/21 17:26:26;;;;;;;11.15;0.60;;;;;;;22.39;40.53;102401.69;16129324;19;130885;-44
2022/09/21 17:31:52;;;;;;;7.80;0.65;;;;;;;22.42;40.68;102394.78;16127668;19;129338;-45
2022/09/21 17:37:14;;;;;;;5.38;0.52;;;;;;;22.45;40.39;102399.88;16126954;19;129435;-45
2022/09/21 17:42:39;;;;;;;5.35;0.52;;;;;;;22.47;40.46;102405.22;16125566;19;130110;-48
2022/09/21 17:48:01;;;;;;;4.77;0.60;;;;;;;22.47;40.54;102400.47;16125250;19;129387;-45
2022/09/21 17:53:33;;;;;;;4.40;0.40;;;;;;;22.49;40.52;102405.84;16119967;19;129901;-44
2022/09/21 17:59:03;;;;;;;5.75;0.50;;;;;;;22.48;40.24;102398.56;16124434;19;129870;-45
2022/09/21 18:04:27;;;;;;;6.35;0.57;;;;;;;22.38;40.67;102408.34;16120181;19;130400;-47
2022/09/21 18:09:49;;;;;;;7.13;0.50;;;;;;;22.35;40.23;102410.72;16119880;19;129450;-49
2022/09/21 18:15:29;;;;;;;5.25;0.50;;;;;;;22.32;40.34;102417.63;16120573;19;130187;-47
2022/09/21 18:21:17;;;;;;;3.90;0.75;;;;;;;22.24;40.68;102416.03;16124196;19;130255;-47
2022/09/21 18:26:39;;;;;;;7.15;0.88;;;;;;;22.18;40.58;102416.94;16123123;19;130075;-46
2022/09/21 18:32:09;;;;;;;2.15;0.50;;;;;;;22.14;40.92;102424.06;16122214;19;130278;-45
2022/09/21 18:37:40;;;;;;;3.15;0.70;;;;;;;22.08;41.18;102420.28;16123204;19;129891;-47
2022/09/21 18:43:17;;;;;;;5.00;0.50;;;;;;;22.04;41.42;102420.97;16120870;19;129036;-45
2022/09/21 18:48:48;;;;;;;5.82;0.40;;;;;;;22.00;41.16;102423.38;16122054;19;129849;-46
2022/09/21 18:54:24;;;;;;;4.68;0.50;;;;;;;21.95;41.18;102426.00;16117275;19;129600;-46
2022/09/21 18:59:46;;;;;;;9.57;0.90;;;;;;;21.92;41.52;102420.91;16120377;19;129679;-47
2022/09/21 19:05:11;;;;;;;5.68;0.60;;;;;;;21.88;41.66;102422.47;16117282;19;129198;-46
2022/09/21 19:10:43;;;;;;;7.93;0.70;;;;;;;21.85;41.20;102431.28;16122603;19;129600;-47
2022/09/21 19:16:22;;;;;;;3.60;0.50;;;;;;;21.81;41.41;102434.53;16131212;19;130027;-45
2022/09/21 19:21:52;;;;;;;10.25;0.68;;;;;;;21.76;41.08;102434.38;16133748;19;130046;-45
2022/09/21 19:27:28;;;;;;;12.25;1.00;;;;;;;21.75;41.54;102438.25;16132988;19;134985;-45
2022/09/21 19:32:52;;;;;;;20.53;1.00;;;;;;;21.73;41.32;102431.19;16134180;19;130964;-45
2022/09/21 19:38:14;;;;;;;10.73;0.85;;;;;;;21.74;41.53;102433.75;16138531;19;129477;-45
2022/09/21 19:43:54;;;;;;;6.50;0.50;;;;;;;21.76;41.31;102444.66;16135016;19;129875;-49
2022/09/21 19:49:18;;;;;;;5.07;0.50;;;;;;;21.74;41.69;102444.03;16136427;19;129942;-44
2022/09/21 20:00:21;;;;;;;13.75;0.80;;;;;;;21.79;42.07;102433.91;16135341;19;131199;-45
2022/09/21 20:06:03;;;;;;;7.07;0.77;;;;;;;21.87;41.76;102429.97;16131548;19;129752;-47
2022/09/21 20:11:27;;;;;;;9.05;0.90;;;;;;;21.94;41.83;102436.31;16136895;19;129502;-44
2022/09/21 20:16:53;;;;;;;7.40;0.60;;;;;;;22.01;41.36;102429.81;16135012;19;133622;-47
2022/09/21 20:22:18;;;;;;;5.45;0.50;;;;;;;22.06;41.44;102425.22;16134077;19;130545;-44
2022/09/21 20:27:45;;;;;;;7.22;0.60;;;;;;;22.09;41.17;102433.13;16131768;19;129035;-43
2022/09/21 20:33:14;;;;;;;3.40;0.50;;;;;;;22.15;41.10;102424.94;16129630;19;129455;-45
2022/09/21 20:38:36;;;;;;;6.07;0.55;;;;;;;22.16;41.14;102421.03;16132444;19;130612;-45
2022/09/21 20:43:58;;;;;;;2.85;0.60;;;;;;;22.13;40.96;102423.22;16131934;19;129766;-46
2022/09/21 20:49:19;;;;;;;2.80;0.63;;;;;;;22.11;41.09;102425.41;16128819;19;130064;-46
2022/09/21 20:54:44;;;;;;;2.00;0.68;;;;;;;22.06;40.89;102425.22;16130942;19;129639;-45
2022/09/21 21:00:13;;;;;;;4.03;0.47;;;;;;;22.00;40.95;102422.53;16129280;19;130801;-44
2022/09/21 21:05:35;;;;;;;;;;;;;;;21.89;41.00;102422.22;16128972;19;130402;-44
2022/09/21 21:10:57;;;;;;;3.42;0.70;;;;;;;21.85;40.95;102423.75;16130457;19;129841;-45
2022/09/21 21:16:18;;;;;;;2.90;0.45;;;;;;;21.80;41.26;102420.84;16129104;19;129555;-47
2022/09/21 21:21:40;;;;;;;1.25;0.60;;;;;;;21.74;41.40;102414.25;16131521;19;129479;-45
2022/09/21 21:27:02;;;;;;;3.28;0.70;;;;;;;21.69;40.89;102429.97;16129056;19;129467;-44
2022/09/21 21:32:25;;;;;;;7.85;0.63;;;;;;;21.64;41.44;102436.22;16128606;19;129529;-45
2022/09/21 21:37:47;;;;;;;1.65;0.40;;;;;;;21.61;41.37;102436.69;16124238;19;129575;-44
2022/09/21 21:43:08;;;;;;;2.78;0.50;;;;;;;21.55;41.16;102421.75;16127334;19;129062;-47
2022/09/21 21:48:30;;;;;;;2.85;0.73;;;;;;;21.51;41.16;102421.38;16128647;19;129639;-44
2022/09/21 21:53:52;;;;;;;1.67;0.50;;;;;;;21.47;41.44;102420.06;16125879;19;129397;-47
2022/09/21 21:59:14;;;;;;;2.42;0.40;;;;;;;21.44;41.47;102414.13;16127944;19;129620;-47
2022/09/21 22:04:38;;;;;;;1.50;0.40;;;;;;;21.40;41.66;102413.72;16125004;19;130199;-45
2022/09/21 22:10:00;;;;;;;1.25;0.77;;;;;;;21.37;41.34;102411.41;16125500;19;130064;-45
2022/09/21 22:15:22;;;;;;;1.38;0.63;;;;;;;21.34;41.63;102414.63;16126900;19;129591;-44
2022/09/21 22:20:44;;;;;;;1.17;0.60;;;;;;;21.31;41.55;102403.94;16123563;19;129251;-45
2022/09/21 22:26:08;;;;;;;0.80;0.60;;;;;;;21.29;41.29;102404.19;16122854;19;130281;-44
2022/09/21 22:31:35;;;;;;;4.97;1.00;;;;;;;21.27;41.22;102400.78;16123284;19;135319;-47
2022/09/21 22:36:58;;;;;;;1.05;0.60;;;;;;;21.24;41.65;102403.16;16125543;19;129704;-45
2022/09/21 22:42:20;;;;;;;1.67;0.80;;;;;;;21.21;41.47;102393.34;16122151;19;129404;-45
2022/09/21 22:47:41;;;;;;;1.08;0.60;;;;;;;21.21;41.67;102398.94;16121939;19;129682;-45
2022/09/21 22:53:03;;;;;;;0.70;0.52;;;;;;;21.19;41.27;102401.91;16123464;19;129983;-46
2022/09/21 22:58:25;;;;;;;0.60;0.40;;;;;;;21.18;41.48;102403.00;16122257;19;130410;-47
2022/09/21 23:03:49;;;;;;;1.27;0.50;;;;;;;21.15;41.49;102400.69;16120702;19;129286;-45
2022/09/21 23:09:15;;;;;;;1.83;0.60;;;;;;;21.14;41.63;102409.25;16123477;19;129331;-46
2022/09/21 23:14:37;;;;;;;0.73;0.60;;;;;;;21.11;41.29;102404.16;16121943;19;130430;-46
2022/09/21 23:19:59;;;;;;;0.80;0.40;;;;;;;21.09;41.72;102401.59;16122215;19;129042;-44
2022/09/21 23:25:21;;;;;;;2.47;0.65;;;;;;;21.05;41.39;102401.19;16119903;19;129205;-46
2022/09/21 23:30:42;;;;;;;1.13;0.60;;;;;;;21.04;41.37;102404.22;16119527;19;129845;-45
2022/09/21 23:36:06;;;;;;;1.60;0.73;;;;;;;21.03;41.56;102392.22;16121466;19;130236;-46
2022/09/21 23:41:33;;;;;;;0.93;0.60;;;;;;;21.03;41.41;102380.25;16120194;19;129699;-46
2022/09/21 23:46:55;;;;;;;1.77;0.68;;;;;;;21.00;41.58;102387.09;16118863;19;129958;-44
2022/09/21 23:52:17;;;;;;;2.47;0.65;;;;;;;20.97;41.48;102378.34;16119210;19;129986;-44
2022/09/21 23:57:38;;;;;;;1.00;0.47;;;;;;;20.96;41.77;102373.88;16122902;19;129522;-44
